PHOENIX SKY HARBOR INTL

KPHX (PHX)
Phoenix, Arizona
Towered

Vatsim Metar:
KPHX 181451Z 18006KT 10SM FEW080 FEW110 SCT140 BKN190 BKN250 37/15 A2992 RMK AO2 RAB10E20 SLP108 CB DSNT NW SHRA W AND DSNT E P0000 60000 T03670150 51024

No ATC Online

Traffic

Inbound:
Ident
Type
Name
ETA
Phase
NUM1549
B77W
Abdullah Siddique OPKC
15:19 Z
Descent
SWA1363
B738
Jonah Gawlik KGRR
15:22 Z
Descent
SWA790
B738
1738172 RCTP
Boarding
NKS621
A20N
Easton KSEA
Boarding

Outbound:
Ident
Type
Name
Destination
Phase
AAL2846
A320
Tony Johns KDVT
KSFO
Boarding
SKW6209
CRJ7
Toko Yami KPHX
KBFL
Taxiing Out